Time;durP1;ratioP1;P1;durP2;ratioP2;P2;SDS_P1;SDS_P2;PMS_P1;PMS_P2;Temp;Humidity;BMP_temperature;BMP_pressure;BME280_temperature;BME280_humidity;BME280_pressure;Samples;Min_cycle;Max_cycle;Signal;HPM_P1;HPM_P2
2021/09/23 02:20:08;;;;;;;1.23;1.03;;;;;;;9.49;68.00;99543.53;6080387;23;40001;-81
2021/09/23 02:50:58;;;;;;;1.37;0.87;;;;;;;9.14;67.91;99517.88;5949098;23;39084;-81
2021/09/23 03:02:04;;;;;;;1.00;0.93;;;;;;;9.45;67.52;99570.16;5964011;23;42479;-81
2021/09/23 03:04:42;;;;;;;1.03;0.90;;;;;;;9.22;67.97;99519.22;6106174;22;39159;-82
2021/09/23 03:10:46;;;;;;;1.83;1.10;;;;;;;9.22;68.16;99508.66;6280287;22;42714;-81
2021/09/23 03:13:44;;;;;;;1.40;0.83;;;;;;;9.33;68.47;99532.78;6255305;22;41543;-81
2021/09/23 03:16:56;;;;;;;1.10;0.83;;;;;;;9.03;68.16;99486.63;6255384;22;39119;-81
2021/09/23 03:19:59;;;;;;;2.20;0.80;;;;;;;9.27;68.16;99533.06;6232822;22;41936;-80
2021/09/23 03:23:00;;;;;;;0.80;0.80;;;;;;;9.33;68.01;99534.59;6217592;22;41864;-81
2021/09/23 03:25:31;;;;;;;0.77;0.77;;;;;;;9.23;68.07;99518.28;6217616;22;42446;-81
2021/09/23 03:28:01;;;;;;;2.53;1.57;;;;;;;8.92;68.10;99463.34;6243485;22;39231;-81
2021/09/23 03:30:34;;;;;;;1.30;1.10;;;;;;;9.17;67.99;99509.78;6217260;22;41242;-81
2021/09/23 03:33:58;;;;;;;0.63;0.60;;;;;;;9.27;68.27;99530.41;6217504;22;43102;-82
2021/09/23 03:37:17;;;;;;;1.07;0.90;;;;;;;8.73;68.15;99446.66;6215315;22;42696;-81
2021/09/23 03:41:17;;;;;;;;;;;;;;;;;;;;;
2021/09/23 03:44:53;;;;;;;1.00;0.77;;;;;;;8.65;68.01;99448.78;5998729;23;42027;-81
2021/09/23 03:47:55;;;;;;;1.13;1.03;;;;;;;8.58;67.93;99436.78;5952848;23;43854;-81
2021/09/23 03:51:19;;;;;;;1.13;0.70;;;;;;;9.04;67.54;99519.19;6098353;23;41565;-81
2021/09/23 03:58:16;;;;;;;1.47;1.00;;;;;;;8.95;67.95;99518.69;6058008;23;40592;-80
2021/09/23 04:00:50;;;;;;;1.77;1.67;;;;;;;8.78;68.13;99494.00;6164638;22;42496;-81
2021/09/23 04:03:26;;;;;;;0.83;0.83;;;;;;;8.87;68.15;99504.13;6248545;22;43174;-81
2021/09/23 04:05:54;;;;;;;1.20;0.97;;;;;;;8.92;68.21;99505.63;6248366;22;39337;-81
2021/09/23 04:08:22;;;;;;;1.23;0.90;;;;;;;8.91;68.15;99509.19;6248332;22;41043;-81
2021/09/23 04:10:49;;;;;;;0.80;0.80;;;;;;;8.90;68.69;99502.19;6223478;22;41919;-79
2021/09/23 04:13:20;;;;;;;1.40;0.70;;;;;;;8.91;68.72;99503.03;6223407;22;41935;-80
2021/09/23 04:15:52;;;;;;;1.27;1.03;;;;;;;8.91;68.77;99495.13;6217210;22;39104;-80
2021/09/23 04:18:21;;;;;;;1.17;0.93;;;;;;;8.90;68.67;99494.25;6280657;22;41830;-81
2021/09/23 04:20:49;;;;;;;1.57;1.13;;;;;;;8.80;68.64;99477.13;6280931;22;43012;-81
2021/09/23 04:23:17;;;;;;;1.77;1.07;;;;;;;8.89;68.72;99489.06;6281375;22;43095;-80
2021/09/23 04:25:45;;;;;;;1.23;0.90;;;;;;;8.88;68.79;99493.50;6254236;22;39418;-80
2021/09/23 04:28:13;;;;;;;1.60;1.00;;;;;;;8.88;68.76;99492.66;6280219;22;40838;-81
2021/09/23 04:30:41;;;;;;;1.07;0.90;;;;;;;8.87;69.00;99494.44;6281055;22;42161;-79
2021/09/23 04:33:08;;;;;;;3.07;1.10;;;;;;;8.88;69.07;99493.50;6255107;22;41892;-80
2021/09/23 04:35:45;;;;;;;1.20;1.03;;;;;;;8.86;68.84;99492.72;6279808;22;40189;-80
2021/09/23 04:38:17;;;;;;;0.80;0.80;;;;;;;8.82;68.86;99483.19;6280967;22;42464;-81
2021/09/23 04:40:45;;;;;;;0.97;0.73;;;;;;;8.81;68.78;99481.47;6306500;22;43022;-80
2021/09/23 04:43:13;;;;;;;1.80;0.83;;;;;;;8.80;69.03;99479.75;6254616;22;42188;-80
2021/09/23 04:45:40;;;;;;;2.03;0.87;;;;;;;8.78;68.94;99473.69;6306398;22;39758;-80
2021/09/23 04:48:08;;;;;;;1.53;1.17;;;;;;;8.78;69.13;99481.63;6309187;22;42720;-81
2021/09/23 04:50:36;;;;;;;0.93;0.83;;;;;;;8.77;68.92;99482.56;6281539;22;43719;-80
2021/09/23 04:53:10;;;;;;;1.10;0.90;;;;;;;8.79;69.04;99488.59;6231048;22;41564;-80
2021/09/23 04:55:37;;;;;;;0.90;0.90;;;;;;;8.78;69.11;99486.06;6281499;22;40160;-81
2021/09/23 04:58:05;;;;;;;1.50;1.20;;;;;;;8.75;69.25;99476.50;6282093;22;42409;-81
2021/09/23 05:00:40;;;;;;;1.30;1.20;;;;;;;8.69;69.13;99476.75;6280592;22;43171;-79
2021/09/23 05:03:10;;;;;;;1.07;0.83;;;;;;;8.60;69.10;99456.06;6307122;22;43264;-80
2021/09/23 05:05:44;;;;;;;1.10;0.80;;;;;;;8.70;68.93;99467.91;6285329;22;40205;-80
2021/09/23 05:08:13;;;;;;;2.07;1.07;;;;;;;8.68;69.31;99463.63;6299641;22;40790;-80
2021/09/23 05:10:41;;;;;;;1.23;1.00;;;;;;;8.67;69.25;99468.03;6274291;22;41966;-80
2021/09/23 05:13:09;;;;;;;1.80;1.20;;;;;;;8.68;69.15;99474.19;6273392;22;41404;-80
2021/09/23 05:15:43;;;;;;;0.87;0.83;;;;;;;8.68;69.20;99469.75;6326669;22;41772;-80
2021/09/23 05:18:11;;;;;;;3.03;1.10;;;;;;;8.69;69.19;99460.91;6274572;22;40806;-80
2021/09/23 05:20:39;;;;;;;0.93;0.83;;;;;;;8.68;69.02;99463.63;6255425;22;42513;-80
2021/09/23 05:23:07;;;;;;;1.00;0.87;;;;;;;8.71;68.93;99463.50;6309065;22;42493;-80
2021/09/23 05:25:37;;;;;;;1.03;0.90;;;;;;;8.70;69.16;99467.06;6280438;22;40233;-80
2021/09/23 05:28:05;;;;;;;1.00;0.80;;;;;;;8.71;68.91;99464.34;6281505;22;41886;-81
2021/09/23 05:30:33;;;;;;;1.83;1.03;;;;;;;8.70;68.88;99464.41;6280707;22;41970;-80
2021/09/23 05:33:01;;;;;;;1.53;1.33;;;;;;;8.68;68.79;99456.56;6307114;22;42632;-80
2021/09/23 05:35:29;;;;;;;1.30;1.20;;;;;;;8.70;69.04;99464.41;6255897;22;38993;-82
2021/09/23 05:37:57;;;;;;;1.93;1.27;;;;;;;8.70;68.81;99456.50;6280784;22;41022;-80
2021/09/23 05:40:25;;;;;;;1.17;0.90;;;;;;;8.72;68.64;99455.50;6280285;22;43168;-81
2021/09/23 05:42:53;;;;;;;2.30;1.67;;;;;;;8.72;68.67;99444.94;6281339;22;42644;-80
2021/09/23 05:45:21;;;;;;;0.90;0.90;;;;;;;8.74;68.55;99443.09;6255329;22;40168;-80
2021/09/23 05:47:50;;;;;;;0.67;0.67;;;;;;;8.76;68.64;99446.53;6279714;22;40822;-79
2021/09/23 05:50:18;;;;;;;2.40;1.40;;;;;;;8.76;69.01;99441.25;6253728;22;42501;-80
2021/09/23 05:52:46;;;;;;;1.90;1.43;;;;;;;8.81;68.86;99444.50;6255015;22;41470;-80
2021/09/23 05:55:19;;;;;;;1.40;1.20;;;;;;;8.44;68.88;99383.75;6280779;22;38810;-80
2021/09/23 05:57:47;;;;;;;1.50;1.00;;;;;;;8.88;68.79;99445.09;6280932;22;41816;-80
2021/09/23 06:00:19;;;;;;;1.20;0.97;;;;;;;8.92;68.48;99450.16;6280964;22;43290;-80
2021/09/23 06:02:46;;;;;;;1.53;1.10;;;;;;;8.94;68.39;99461.50;6308806;22;42199;-79
2021/09/23 06:05:17;;;;;;;2.37;1.00;;;;;;;8.98;68.63;99462.22;6280474;22;40704;-80
2021/09/23 06:07:46;;;;;;;1.30;1.20;;;;;;;9.02;68.76;99469.09;6308577;22;42851;-79
2021/09/23 06:10:15;;;;;;;1.27;1.10;;;;;;;9.07;68.55;99467.06;6256259;22;43929;-80
2021/09/23 06:12:42;;;;;;;1.77;1.10;;;;;;;9.13;68.60;99473.88;6281253;22;43177;-79
2021/09/23 06:15:12;;;;;;;1.83;1.30;;;;;;;9.15;68.63;99453.53;6281181;22;39825;-80
2021/09/23 06:17:41;;;;;;;1.83;1.07;;;;;;;9.52;68.45;99463.19;6280841;22;41208;-80
2021/09/23 06:20:10;;;;;;;1.37;1.27;;;;;;;9.95;67.37;99461.91;6281150;22;41910;-80
2021/09/23 06:22:38;;;;;;;1.23;1.13;;;;;;;9.92;67.44;99446.19;6255224;22;42464;-78
2021/09/23 06:25:07;;;;;;;1.47;1.33;;;;;;;10.00;67.76;99444.03;6280606;22;40934;-80
2021/09/23 06:27:34;;;;;;;1.50;1.07;;;;;;;10.05;67.66;99447.28;6255729;22;40935;-80
2021/09/23 06:30:02;;;;;;;1.03;0.80;;;;;;;10.08;67.88;99441.84;6308667;22;43855;-80
2021/09/23 06:32:29;;;;;;;1.47;1.20;;;;;;;10.04;68.30;99427.91;6308403;22;42469;-80
2021/09/23 06:35:01;;;;;;;1.10;1.00;;;;;;;10.16;68.25;99439.66;6280259;22;40252;-81
2021/09/23 06:37:28;;;;;;;1.43;1.13;;;;;;;10.19;68.63;99439.53;6255224;22;42080;-80
2021/09/23 06:39:56;;;;;;;1.80;1.67;;;;;;;10.18;69.16;99427.22;6307448;22;43620;-80
2021/09/23 06:42:23;;;;;;;1.77;1.20;;;;;;;10.28;69.03;99439.03;6307895;22;42347;-80
2021/09/23 06:44:51;;;;;;;1.73;1.37;;;;;;;10.28;69.20;99428.47;6280933;22;39023;-80
2021/09/23 06:47:19;;;;;;;1.43;1.00;;;;;;;10.32;69.08;99429.16;6279878;22;41672;-78
2021/09/23 06:49:50;;;;;;;2.10;1.30;;;;;;;10.46;69.29;99441.69;6300891;22;43395;-81
2021/09/23 06:52:19;;;;;;;2.57;1.30;;;;;;;10.54;69.59;99432.38;6307929;22;42340;-81
2021/09/23 06:54:47;;;;;;;2.10;1.40;;;;;;;10.62;69.45;99437.28;6306895;22;40040;-82
2021/09/23 06:57:14;;;;;;;2.50;1.90;;;;;;;10.63;69.09;99420.47;6307609;22;41941;-81
2021/09/23 07:00:00;;;;;;;4.13;1.80;;;;;;;10.78;69.38;99428.41;6307286;22;43782;-79
2021/09/23 07:02:38;;;;;;;2.27;1.30;;;;;;;11.11;69.25;99454.91;6254285;22;41260;-82
2021/09/23 07:05:24;;;;;;;1.33;1.23;;;;;;;11.29;68.75;99457.44;6305726;22;40371;-77
2021/09/23 07:07:53;;;;;;;2.50;1.80;;;;;;;11.23;69.18;99433.94;6280836;22;40922;-85
2021/09/23 07:10:23;;;;;;;2.53;2.03;;;;;;;11.47;69.05;99454.63;6305996;22;42830;-81
2021/09/23 07:12:51;;;;;;;1.83;1.47;;;;;;;11.39;68.68;99424.16;6307069;22;42566;-83
2021/09/23 07:15:18;;;;;;;2.53;1.57;;;;;;;11.69;68.60;99451.59;6255277;22;39043;-82
2021/09/23 07:17:46;;;;;;;3.13;1.80;;;;;;;11.84;68.63;99448.09;6255146;22;40773;-79
2021/09/23 07:20:14;;;;;;;2.27;1.50;;;;;;;12.43;68.64;99446.34;6254678;22;43018;-82
2021/09/23 07:22:43;;;;;;;2.43;1.80;;;;;;;14.01;67.27;99441.50;6281178;22;41819;-79
2021/09/23 07:25:12;;;;;;;2.47;2.23;;;;;;;15.07;66.48;99437.72;6281352;22;38953;-82
2021/09/23 07:27:41;;;;;;;2.97;2.30;;;;;;;15.82;65.04;99448.28;6254797;22;41237;-81
2021/09/23 07:30:10;;;;;;;2.90;2.23;;;;;;;16.72;61.55;99451.09;6305340;22;45873;-85
2021/09/23 07:32:37;;;;;;;2.23;2.03;;;;;;;18.11;57.09;99470.16;6281647;22;41860;-84
2021/09/23 07:35:06;;;;;;;2.40;2.20;;;;;;;20.34;51.46;99503.22;6307987;22;40785;-84
2021/09/23 07:37:34;;;;;;;2.20;2.00;;;;;;;22.49;45.90;99520.94;6256288;22;41000;-85
2021/09/23 07:40:02;;;;;;;4.10;2.33;;;;;;;22.94;44.16;99517.25;6280797;22;41774;-83
2021/09/23 07:42:31;;;;;;;12.17;7.93;;;;;;;23.66;42.34;99529.50;6254091;22;42144;-82
2021/09/23 07:44:59;;;;;;;3.33;3.03;;;;;;;23.76;41.72;99530.22;6281138;22;40388;-79
2021/09/23 07:47:27;;;;;;;3.90;2.57;;;;;;;24.30;40.69;99512.63;6255535;22;40745;-83
2021/09/23 07:49:56;;;;;;;2.27;1.93;;;;;;;23.21;42.25;99508.13;6306269;22;43853;-77
2021/09/23 07:52:25;;;;;;;2.37;1.90;;;;;;;22.27;43.35;99507.88;6305981;22;42514;-82
2021/09/23 07:54:55;;;;;;;2.93;2.07;;;;;;;21.44;45.13;99488.25;6254159;22;38866;-76
2021/09/23 07:57:23;;;;;;;2.17;1.57;;;;;;;20.78;46.61;99492.84;6277642;22;41934;-76
2021/09/23 07:59:52;;;;;;;3.00;2.50;;;;;;;20.11;47.52;99469.53;6254204;22;42846;-78
2021/09/23 08:02:19;;;;;;;2.50;1.87;;;;;;;19.87;47.73;99482.53;6279580;22;42310;-82
2021/09/23 08:04:49;;;;;;;2.77;2.17;;;;;;;20.15;47.98;99470.94;6280432;22;40531;-79
2021/09/23 08:07:17;;;;;;;4.80;3.13;;;;;;;20.86;46.28;99476.81;6280482;22;41847;-79
2021/09/23 08:12:28;;;;;;;2.43;1.90;;;;;;;22.52;43.56;99469.31;6253684;22;41792;-84
2021/09/23 08:14:58;;;;;;;3.20;2.67;;;;;;;24.16;40.97;99512.41;6279513;22;40371;-81
2021/09/23 08:17:41;;;;;;;3.63;2.03;;;;;;;25.73;37.96;99511.91;6253985;22;40827;-84
2021/09/23 08:20:33;;;;;;;2.47;2.27;;;;;;;25.92;37.59;99500.66;6253124;22;41968;-78
2021/09/23 08:23:01;;;;;;;2.77;2.10;;;;;;;25.72;37.53;99474.94;6280068;22;41164;-85
2021/09/23 08:25:29;;;;;;;3.03;2.73;;;;;;;26.87;35.63;99494.84;6253935;22;39270;-82
2021/09/23 08:27:56;;;;;;;2.50;1.77;;;;;;;28.40;33.68;99527.56;6279163;22;42904;-85
2021/09/23 08:30:25;;;;;;;2.30;2.10;;;;;;;29.29;31.83;99523.31;6278842;22;42009;-81
2021/09/23 08:32:53;;;;;;;2.83;2.00;;;;;;;30.34;30.05;99528.44;6305764;22;43292;-78
2021/09/23 08:35:22;;;;;;;2.27;2.07;;;;;;;31.45;28.26;99531.44;6278432;22;38939;-79
2021/09/23 08:37:50;;;;;;;2.53;2.20;;;;;;;32.76;26.62;99545.69;6293124;22;42870;-78
2021/09/23 08:40:18;;;;;;;1.85;1.73;;;;;;;34.19;25.06;99536.19;6278649;22;43086;-79
2021/09/23 08:42:47;;;;;;;2.00;1.80;;;;;;;34.56;24.80;99514.94;6254674;22;42646;-83
2021/09/23 08:45:18;;;;;;;1.70;1.60;;;;;;;34.37;25.11;99513.31;6253679;22;39244;-82
2021/09/23 08:47:47;;;;;;;1.67;1.58;;;;;;;34.27;24.76;99521.28;6280252;22;42080;-77
2021/09/23 08:50:17;;;;;;;1.75;1.60;;;;;;;33.89;25.44;99527.91;6252811;22;41903;-80
2021/09/23 08:52:47;;;;;;;1.53;1.30;;;;;;;32.86;25.91;99518.59;6279034;22;42062;-86
2021/09/23 08:55:23;;;;;;;1.63;1.53;;;;;;;31.68;27.48;99500.88;6253940;22;38832;-81
2021/09/23 08:57:53;;;;;;;1.83;1.73;;;;;;;31.05;27.73;99459.50;6305245;22;41846;-83
2021/09/23 09:00:22;;;;;;;1.50;1.40;;;;;;;31.41;27.65;99491.84;6278811;22;42785;-81
2021/09/23 09:03:05;;;;;;;1.57;1.47;;;;;;;30.95;28.61;99476.34;6279068;22;42191;-79
2021/09/23 09:05:56;;;;;;;1.63;1.50;;;;;;;30.71;28.76;99477.00;6279700;22;40209;-86
2021/09/23 09:08:36;;;;;;;1.50;1.40;;;;;;;30.33;29.25;99461.16;6254513;22;41724;-84
2021/09/23 09:11:13;;;;;;;6.03;4.80;;;;;;;29.77;29.86;99465.19;6279726;22;42788;-86
2021/09/23 09:13:43;;;;;;;1.87;1.67;;;;;;;28.91;31.21;99454.66;6253903;22;42211;-79
2021/09/23 09:16:14;;;;;;;3.20;1.93;;;;;;;28.10;31.89;99439.59;6254725;22;39417;-80
2021/09/23 09:18:44;;;;;;;1.77;1.67;;;;;;;27.27;33.01;99434.63;6254458;22;40732;-81
2021/09/23 09:21:14;;;;;;;1.53;1.40;;;;;;;26.51;34.58;99408.56;6254278;22;43105;-81
2021/09/23 09:23:45;;;;;;;2.23;1.70;;;;;;;25.89;34.84;99387.00;6253267;22;41535;-80
2021/09/23 09:26:20;;;;;;;1.80;1.43;;;;;;;25.44;36.34;99404.06;6280032;22;40206;-78
2021/09/23 09:28:51;;;;;;;1.97;1.77;;;;;;;24.95;36.72;99395.28;6254144;22;40756;-77
2021/09/23 09:31:22;;;;;;;1.77;1.63;;;;;;;24.46;37.64;99362.88;6253725;22;43085;-78
2021/09/23 09:33:52;;;;;;;1.77;1.60;;;;;;;24.31;38.22;99370.00;6255971;22;42200;-78
2021/09/23 09:36:26;;;;;;;3.80;1.60;;;;;;;24.07;38.75;99364.56;6255671;22;39029;-82
2021/09/23 09:38:55;;;;;;;2.53;1.90;;;;;;;23.89;39.25;99367.41;6281467;22;42713;-81
2021/09/23 09:41:26;;;;;;;2.40;1.90;;;;;;;23.69;39.49;99350.69;6254473;22;42124;-83
2021/09/23 09:43:57;;;;;;;1.70;1.60;;;;;;;23.60;39.57;99346.28;6280598;22;41217;-84
2021/09/23 09:46:26;;;;;;;1.93;1.57;;;;;;;23.47;40.63;99341.31;6306784;22;39926;-87
2021/09/23 09:49:03;;;;;;;1.10;0.90;;;;;;;23.46;41.34;99347.75;6256009;22;41171;-87
2021/09/23 09:51:55;;;;;;;1.63;1.13;;;;;;;23.31;41.14;99324.22;6255391;22;42366;-80
2021/09/23 09:54:26;;;;;;;1.63;1.27;;;;;;;23.33;41.11;99346.53;6251809;22;41309;-78
2021/09/23 09:56:58;;;;;;;1.10;1.00;;;;;;;23.33;41.75;99338.41;6255025;22;38802;-83
2021/09/23 09:59:26;;;;;;;2.93;1.50;;;;;;;23.32;42.15;99347.53;6254510;22;42110;-81
2021/09/23 10:01:58;;;;;;;1.40;1.30;;;;;;;23.23;41.62;99339.41;6281111;22;41708;-82
2021/09/23 10:04:30;;;;;;;1.20;1.00;;;;;;;23.22;43.11;99336.88;6255147;22;41689;-78
2021/09/23 10:07:05;;;;;;;1.83;1.40;;;;;;;23.38;42.24;99336.88;6307193;22;40078;-79
2021/09/23 10:09:38;;;;;;;1.23;1.10;;;;;;;23.73;41.68;99341.22;6280109;22;42785;-84
2021/09/23 10:12:08;;;;;;;2.40;1.77;;;;;;;24.92;39.58;99357.66;6306621;22;43057;-78
2021/09/23 10:14:40;;;;;;;1.20;1.10;;;;;;;25.63;38.16;99364.78;6281271;22;42757;-80
2021/09/23 10:17:08;;;;;;;1.30;1.20;;;;;;;25.78;38.15;99346.72;6281514;22;41060;-79
2021/09/23 10:19:40;;;;;;;1.20;1.10;;;;;;;25.75;38.01;99341.66;6255858;22;41964;-84
2021/09/23 10:22:10;;;;;;;1.30;1.10;;;;;;;25.60;38.01;99346.97;6280412;22;43204;-81
2021/09/23 10:24:40;;;;;;;1.63;1.00;;;;;;;25.58;38.24;99348.19;6281511;22;42451;-78
2021/09/23 10:29:59;;;;;;;2.57;1.20;;;;;;;26.23;37.59;99301.53;6280076;22;42768;-85
2021/09/23 10:32:27;;;;;;;1.50;1.00;;;;;;;27.40;36.03;99312.38;6255366;22;41699;-84
2021/09/23 10:34:57;;;;;;;4.17;2.90;;;;;;;29.31;33.03;99334.81;6280754;22;42113;-81
2021/09/23 10:37:25;;;;;;;3.00;2.00;;;;;;;30.70;30.51;99344.03;6280807;22;39985;-81
2021/09/23 10:39:56;;;;;;;1.40;1.27;;;;;;;31.05;30.46;99348.16;6280348;22;42888;-83
2021/09/23 10:42:24;;;;;;;1.77;1.20;;;;;;;31.03;30.21;99331.09;6255266;22;41836;-83
2021/09/23 10:44:57;;;;;;;1.20;1.10;;;;;;;31.50;29.27;99347.38;6256251;22;41272;-84
2021/09/23 10:47:28;;;;;;;1.00;0.93;;;;;;;32.08;27.64;99350.81;6256238;22;39256;-84
2021/09/23 10:49:57;;;;;;;1.00;1.00;;;;;;;33.00;26.95;99333.53;6281504;22;40927;-84
2021/09/23 10:52:34;;;;;;;1.23;1.10;;;;;;;33.91;25.63;99343.53;6280524;22;42622;-84
2021/09/23 10:55:04;;;;;;;1.20;1.10;;;;;;;34.38;24.69;99327.13;6255180;22;41425;-82
2021/09/23 10:57:41;;;;;;;1.57;1.30;;;;;;;34.68;23.88;99327.84;6280936;22;41247;-86
2021/09/23 11:00:11;;;;;;;1.70;1.50;;;;;;;34.98;24.21;99330.50;6254581;22;42203;-85
2021/09/23 11:02:41;;;;;;;1.50;1.40;;;;;;;35.13;24.27;99322.53;6255648;22;43895;-84
2021/09/23 11:05:13;;;;;;;1.30;1.20;;;;;;;35.15;23.77;99317.63;6280654;22;42550;-85
2021/09/23 11:07:44;;;;;;;1.70;1.50;;;;;;;36.13;22.88;99321.97;6256055;22;38934;-85
2021/09/23 11:10:15;;;;;;;1.30;1.20;;;;;;;37.79;21.41;99323.75;6255548;22;40948;-84
2021/09/23 11:15:28;;;;;;;0.85;0.85;;;;;;;41.41;17.86;99337.34;6253968;22;41506;-84
2021/09/23 11:18:00;;;;;;;6.95;5.47;;;;;;;42.68;16.50;99330.84;6255341;22;39223;-87
2021/09/23 11:20:34;;;;;;;1.70;1.60;;;;;;;43.86;15.26;99331.06;6281083;22;42157;-88
2021/09/23 11:23:04;;;;;;;1.65;0.93;;;;;;;44.97;15.23;99334.72;6255616;22;43411;-84
2021/09/23 11:25:34;;;;;;;1.17;1.08;;;;;;;45.64;15.09;99321.00;6280651;22;41645;-85
2021/09/23 11:28:03;;;;;;;0.82;0.82;;;;;;;45.36;15.02;99308.22;6254822;22;38879;-87
2021/09/23 11:30:35;;;;;;;1.27;1.23;;;;;;;43.76;16.07;99314.47;6254462;22;40933;-88
2021/09/23 11:33:07;;;;;;;1.40;1.00;;;;;;;42.54;16.78;99299.22;6255810;22;41828;-84
2021/09/23 11:35:38;;;;;;;2.00;1.27;;;;;;;41.59;16.98;99289.41;6255697;22;42205;-84
2021/09/23 11:38:08;;;;;;;1.17;1.17;;;;;;;42.16;16.58;99303.78;6255095;22;39021;-82
2021/09/23 11:40:38;;;;;;;1.17;1.15;;;;;;;43.17;15.76;99313.84;6279938;22;41744;-84
2021/09/23 11:43:08;;;;;;;1.40;1.30;;;;;;;44.21;14.95;99313.75;6281140;22;41783;-82
2021/09/23 11:45:40;;;;;;;1.10;1.10;;;;;;;45.19;14.14;99319.22;6279965;22;43150;-82
2021/09/23 11:48:10;;;;;;;1.25;1.17;;;;;;;45.79;13.32;99317.84;6279133;22;40753;-82
2021/09/23 11:50:47;;;;;;;1.20;1.20;;;;;;;45.85;13.65;99307.38;6306412;22;42147;-86
2021/09/23 11:53:19;;;;;;;1.20;1.10;;;;;;;46.01;13.49;99316.22;6255182;22;41923;-83
2021/09/23 11:55:56;;;;;;;1.10;1.00;;;;;;;46.03;13.31;99311.97;6253822;22;41702;-79
2021/09/23 11:58:24;;;;;;;1.00;1.00;;;;;;;46.40;13.83;99285.53;6254443;22;39854;-83
2021/09/23 12:00:53;;;;;;;1.30;1.00;;;;;;;46.86;13.18;99284.28;6280111;22;42487;-82
2021/09/23 12:03:23;;;;;;;1.38;1.27;;;;;;;47.00;13.14;99272.91;6254739;22;42771;-82
2021/09/23 12:05:56;;;;;;;1.08;1.08;;;;;;;47.18;13.11;99286.72;6254077;22;42848;-83
2021/09/23 12:08:25;;;;;;;1.20;1.10;;;;;;;47.48;12.98;99281.34;6279448;22;40728;-79
2021/09/23 12:10:56;;;;;;;0.75;0.75;;;;;;;47.94;12.49;99280.69;6279267;22;42588;-79
2021/09/23 12:13:39;;;;;;;0.90;0.90;;;;;;;48.51;12.43;99289.69;6280218;22;42072;-79
2021/09/23 12:16:08;;;;;;;1.02;1.02;;;;;;;48.90;11.92;99268.03;6279898;22;42618;-80
2021/09/23 12:18:37;;;;;;;1.05;1.02;;;;;;;49.25;11.97;99263.84;6279636;22;40348;-83
2021/09/23 12:21:11;;;;;;;1.27;1.17;;;;;;;49.24;10.59;99273.47;6253878;22;42156;-80
2021/09/23 12:23:41;;;;;;;1.10;1.00;;;;;;;49.10;11.32;99258.78;6306037;22;42764;-84
2021/09/23 12:26:17;;;;;;;2.40;1.40;;;;;;;49.13;11.03;99260.94;6279679;22;42310;-85
2021/09/23 12:28:52;;;;;;;1.30;1.20;;;;;;;48.87;11.28;99254.66;6254030;22;39272;-81
2021/09/23 12:31:28;;;;;;;1.48;1.38;;;;;;;48.14;11.65;99239.84;6254544;22;42022;-84
2021/09/23 12:33:58;;;;;;;1.02;1.00;;;;;;;47.72;11.98;99228.31;6254761;22;42868;-85
2021/09/23 12:36:30;;;;;;;0.93;0.93;;;;;;;47.87;11.59;99236.25;6279852;22;42202;-80
2021/09/23 12:39:24;;;;;;;1.40;1.30;;;;;;;47.84;11.73;99239.72;6280430;22;40998;-81
2021/09/23 12:42:07;;;;;;;1.10;1.10;;;;;;;47.94;11.02;99237.72;6269792;22;42686;-80
2021/09/23 12:44:37;;;;;;;1.13;1.13;;;;;;;47.81;11.46;99220.72;6305237;22;43913;-79
2021/09/23 12:47:09;;;;;;;1.08;1.02;;;;;;;47.71;11.29;99221.06;6279474;22;42657;-78
2021/09/23 12:49:39;;;;;;;1.30;1.17;;;;;;;47.87;11.23;99215.75;6279749;22;38766;-83
2021/09/23 12:52:30;;;;;;;1.33;1.23;;;;;;;47.94;11.42;99218.06;6280152;22;41996;-84
2021/09/23 12:54:59;;;;;;;1.30;1.20;;;;;;;47.85;11.46;99204.84;6298760;22;43940;-82
2021/09/23 12:57:30;;;;;;;1.23;1.13;;;;;;;47.62;11.88;99189.34;6254589;22;41229;-84
2021/09/23 13:00:11;;;;;;;9.20;8.23;;;;;;;47.71;11.71;99187.38;6280093;22;40731;-83
2021/09/23 13:03:01;;;;;;;3.65;3.33;;;;;;;47.54;11.38;99178.97;6279719;22;43673;-83
2021/09/23 13:05:29;;;;;;;1.50;1.40;;;;;;;47.36;11.59;99164.06;6253314;22;42157;-82
2021/09/23 13:08:17;;;;;;;1.25;1.15;;;;;;;47.19;11.72;99170.53;6280909;22;43130;-80
2021/09/23 13:10:45;;;;;;;2.08;1.27;;;;;;;47.03;12.05;99165.72;6280500;22;39795;-83
2021/09/23 13:13:14;;;;;;;1.48;1.38;;;;;;;46.70;11.73;99165.34;6256245;22;41029;-78
2021/09/23 13:15:49;;;;;;;1.33;1.23;;;;;;;46.16;12.44;99158.97;6254500;22;41963;-81
2021/09/23 13:18:20;;;;;;;1.25;1.15;;;;;;;45.63;12.27;99145.00;6255531;22;41632;-85
2021/09/23 13:21:25;;;;;;;1.40;1.30;;;;;;;45.10;12.78;99129.75;6174554;23;40128;-77
2021/09/23 13:23:55;;;;;;;1.40;1.30;;;;;;;45.28;12.69;99132.72;6195791;23;42382;-79
2021/09/23 13:26:28;;;;;;;1.65;1.50;;;;;;;45.57;13.25;99126.69;6273712;22;43268;-81
2021/09/23 13:29:08;;;;;;;1.45;1.35;;;;;;;45.61;12.68;99119.31;6298136;22;43176;-78
2021/09/23 13:31:37;;;;;;;2.53;1.42;;;;;;;45.36;12.89;99138.38;6326087;22;41001;-80
2021/09/23 13:34:05;;;;;;;1.60;1.50;;;;;;;44.62;12.90;99129.44;6290659;22;44353;-83
2021/09/23 13:36:35;;;;;;;1.15;1.13;;;;;;;43.97;13.52;99117.63;6284272;22;42964;-84
2021/09/23 13:39:09;;;;;;;1.30;1.20;;;;;;;43.72;13.95;99109.72;6282825;22;43281;-82
2021/09/23 13:41:46;;;;;;;2.08;1.50;;;;;;;43.37;13.94;99108.34;6259074;22;39403;-84
2021/09/23 13:44:33;;;;;;;1.30;1.20;;;;;;;43.31;14.37;99105.63;6282146;22;41067;-79
2021/09/23 13:47:05;;;;;;;1.80;1.70;;;;;;;43.19;14.23;99093.31;6280671;22;41926;-84
2021/09/23 13:49:33;;;;;;;1.40;1.33;;;;;;;43.08;14.22;99069.47;6307109;22;43190;-85
2021/09/23 13:52:00;;;;;;;1.70;1.60;;;;;;;43.18;14.21;99086.06;6254665;22;40448;-81
2021/09/23 13:54:32;;;;;;;1.50;1.40;;;;;;;43.03;14.00;99077.94;6279896;22;42626;-83
2021/09/23 13:57:00;;;;;;;1.75;1.65;;;;;;;42.74;14.44;99067.75;6281783;22;43015;-82
2021/09/23 13:59:30;;;;;;;1.38;1.27;;;;;;;42.66;14.39;99079.56;6307101;22;42390;-80
2021/09/23 14:01:58;;;;;;;1.52;1.42;;;;;;;42.61;14.53;99065.72;6281448;22;38703;-81
2021/09/23 14:04:25;;;;;;;1.48;1.38;;;;;;;42.62;14.42;99034.78;6254451;22;41622;-82
2021/09/23 14:06:56;;;;;;;1.92;1.77;;;;;;;42.69;13.52;99067.81;6281334;22;43658;-83
2021/09/23 14:09:25;;;;;;;1.65;1.55;;;;;;;42.16;13.14;99062.38;6281314;22;42209;-82
2021/09/23 14:15:15;;;;;;;1.20;1.10;;;;;;;40.51;14.20;99028.25;6305419;22;42034;-81
2021/09/23 14:17:43;;;;;;;1.50;1.40;;;;;;;40.24;14.83;99044.47;6280351;22;42728;-80
2021/09/23 14:20:13;;;;;;;1.20;1.20;;;;;;;39.95;14.98;99030.41;6254863;22;42279;-82
2021/09/23 14:22:47;;;;;;;1.50;1.40;;;;;;;39.36;15.60;99025.53;6280484;22;40325;-80
2021/09/23 14:25:21;;;;;;;2.23;1.70;;;;;;;38.74;15.80;99027.44;6253370;22;41098;-82
2021/09/23 14:28:18;;;;;;;1.77;1.67;;;;;;;38.24;16.17;99007.94;6280709;22;42983;-88
2021/09/23 14:30:45;;;;;;;1.60;1.50;;;;;;;37.82;16.51;98997.81;6280972;22;43315;-84
2021/09/23 14:33:14;;;;;;;1.47;1.37;;;;;;;37.66;16.73;98987.75;6254221;22;39111;-84
2021/09/23 14:35:43;;;;;;;1.57;1.47;;;;;;;37.54;17.06;98992.63;6280720;22;42121;-83
2021/09/23 14:38:11;;;;;;;1.50;1.40;;;;;;;37.20;16.98;98990.22;6280789;22;41793;-83
2021/09/23 14:40:39;;;;;;;1.50;1.40;;;;;;;36.63;17.47;98990.78;6279751;22;41610;-82
2021/09/23 14:43:10;;;;;;;1.57;1.40;;;;;;;36.15;18.19;98982.53;6254990;22;40413;-82
2021/09/23 14:45:37;;;;;;;1.43;1.33;;;;;;;35.71;19.01;98976.19;6279636;22;40588;-86
2021/09/23 14:48:06;;;;;;;1.70;1.43;;;;;;;35.13;19.33;98967.31;6281468;22;42924;-82
2021/09/23 14:50:34;;;;;;;1.83;1.63;;;;;;;34.45;20.25;98946.38;6280513;22;43746;-87
2021/09/23 14:53:01;;;;;;;1.50;1.40;;;;;;;33.76;20.54;98929.06;6278491;22;40557;-85
2021/09/23 14:55:29;;;;;;;1.50;1.13;;;;;;;33.33;21.02;98940.50;6255603;22;41210;-87
2021/09/23 14:57:56;;;;;;;1.40;1.23;;;;;;;32.84;21.79;98933.56;6280370;22;43800;-85
2021/09/23 15:00:26;;;;;;;1.53;1.40;;;;;;;32.61;22.55;98939.00;6253944;22;41473;-83
2021/09/23 15:02:53;;;;;;;1.50;1.40;;;;;;;32.22;22.71;98913.88;6279891;22;40134;-85
2021/09/23 15:05:21;;;;;;;1.50;1.40;;;;;;;32.00;23.55;98926.38;6306692;22;41739;-78
2021/09/23 15:07:48;;;;;;;1.30;1.20;;;;;;;31.50;23.96;98903.84;6254084;22;43070;-81
2021/09/23 15:10:16;;;;;;;1.43;1.20;;;;;;;31.20;24.37;98911.97;6280233;22;41413;-81
2021/09/23 15:12:43;;;;;;;1.30;1.17;;;;;;;30.92;24.76;98902.31;6255642;22;39035;-86
2021/09/23 15:15:11;;;;;;;1.27;1.17;;;;;;;30.70;25.05;98892.88;6279780;22;42614;-81
2021/09/23 15:17:40;;;;;;;1.10;1.00;;;;;;;30.38;25.42;98885.75;6279350;22;42685;-86